sensor_id;sensor_type;location;lat;lon;timestamp;pressure;altitude;pressure_sealevel;temperature;humidity
25584;BME280;13463;51.526;9.928;2024-03-06T00:00:03;100092.94;;;6.61;100.00
25584;BME280;13463;51.526;9.928;2024-03-06T00:02:30;100096.75;;;6.77;100.00
25584;BME280;13463;51.526;9.928;2024-03-06T00:04:57;100093.00;;;6.83;100.00
25584;BME280;13463;51.526;9.928;2024-03-06T00:07:24;100101.19;;;6.52;100.00
25584;BME280;13463;51.526;9.928;2024-03-06T00:09:51;100106.75;;;6.67;100.00
25584;BME280;13463;51.526;9.928;2024-03-06T00:12:17;100114.44;;;6.50;100.00
25584;BME280;13463;51.526;9.928;2024-03-06T00:14:44;100117.78;;;6.31;100.00
25584;BME280;13463;51.526;9.928;2024-03-06T00:17:13;100115.56;;;6.19;100.00
25584;BME280;13463;51.526;9.928;2024-03-06T00:19:40;100121.63;;;6.45;100.00
25584;BME280;13463;51.526;9.928;2024-03-06T00:22:06;100123.47;;;6.66;100.00
25584;BME280;13463;51.526;9.928;2024-03-06T00:24:33;100120.16;;;6.85;100.00
25584;BME280;13463;51.526;9.928;2024-03-06T00:27:00;100119.63;;;6.75;100.00
25584;BME280;13463;51.526;9.928;2024-03-06T00:29:27;100122.69;;;6.64;100.00
25584;BME280;13463;51.526;9.928;2024-03-06T00:31:58;100126.47;;;6.81;100.00
25584;BME280;13463;51.526;9.928;2024-03-06T00:34:25;100126.56;;;7.01;100.00
25584;BME280;13463;51.526;9.928;2024-03-06T00:36:53;100133.41;;;6.83;100.00
25584;BME280;13463;51.526;9.928;2024-03-06T00:39:21;100124.19;;;6.71;100.00
25584;BME280;13463;51.526;9.928;2024-03-06T00:41:47;100148.09;;;6.42;100.00
25584;BME280;13463;51.526;9.928;2024-03-06T00:44:15;100153.69;;;6.33;100.00
25584;BME280;13463;51.526;9.928;2024-03-06T00:46:42;100149.69;;;6.46;100.00
25584;BME280;13463;51.526;9.928;2024-03-06T00:49:08;100146.44;;;6.63;100.00
25584;BME280;13463;51.526;9.928;2024-03-06T00:51:35;100148.28;;;6.61;100.00
25584;BME280;13463;51.526;9.928;2024-03-06T00:54:14;100148.28;;;6.61;100.00
25584;BME280;13463;51.526;9.928;2024-03-06T00:56:40;100150.63;;;6.68;100.00
25584;BME280;13463;51.526;9.928;2024-03-06T00:59:07;100147.31;;;6.63;100.00
25584;BME280;13463;51.526;9.928;2024-03-06T01:01:34;100147.47;;;6.59;100.00
25584;BME280;13463;51.526;9.928;2024-03-06T01:04:00;100149.38;;;6.79;100.00
25584;BME280;13463;51.526;9.928;2024-03-06T01:06:27;100145.00;;;6.78;100.00
25584;BME280;13463;51.526;9.928;2024-03-06T01:08:54;100152.47;;;6.66;100.00
25584;BME280;13463;51.526;9.928;2024-03-06T01:11:21;100154.66;;;6.55;100.00
25584;BME280;13463;51.526;9.928;2024-03-06T01:13:48;100157.22;;;6.32;100.00
25584;BME280;13463;51.526;9.928;2024-03-06T01:16:15;100161.84;;;6.26;100.00
25584;BME280;13463;51.526;9.928;2024-03-06T01:18:41;100158.16;;;6.31;100.00
25584;BME280;13463;51.526;9.928;2024-03-06T01:21:08;100165.06;;;6.58;100.00
25584;BME280;13463;51.526;9.928;2024-03-06T01:23:34;100164.41;;;6.77;100.00
25584;BME280;13463;51.526;9.928;2024-03-06T01:26:01;100175.50;;;6.61;100.00
25584;BME280;13463;51.526;9.928;2024-03-06T01:28:28;100169.16;;;6.67;100.00
25584;BME280;13463;51.526;9.928;2024-03-06T01:30:54;100166.69;;;6.86;100.00
25584;BME280;13463;51.526;9.928;2024-03-06T01:33:21;100163.09;;;6.88;100.00
25584;BME280;13463;51.526;9.928;2024-03-06T01:35:48;100169.09;;;6.68;100.00
25584;BME280;13463;51.526;9.928;2024-03-06T01:38:15;100160.53;;;6.87;100.00
25584;BME280;13463;51.526;9.928;2024-03-06T01:40:43;100151.78;;;6.85;100.00
25584;BME280;13463;51.526;9.928;2024-03-06T01:43:21;100150.53;;;6.71;100.00
25584;BME280;13463;51.526;9.928;2024-03-06T01:45:49;100164.31;;;6.80;100.00
25584;BME280;13463;51.526;9.928;2024-03-06T01:48:23;100158.56;;;6.92;100.00
25584;BME280;13463;51.526;9.928;2024-03-06T01:50:56;100163.50;;;7.01;100.00
25584;BME280;13463;51.526;9.928;2024-03-06T01:53:24;100168.66;;;7.04;100.00
25584;BME280;13463;51.526;9.928;2024-03-06T01:55:51;100168.97;;;6.95;100.00
25584;BME280;13463;51.526;9.928;2024-03-06T01:58:18;100179.97;;;6.83;100.00
25584;BME280;13463;51.526;9.928;2024-03-06T02:00:49;100179.16;;;6.57;100.00
25584;BME280;13463;51.526;9.928;2024-03-06T02:03:17;100171.28;;;6.56;100.00
25584;BME280;13463;51.526;9.928;2024-03-06T02:05:44;100173.34;;;6.72;100.00
25584;BME280;13463;51.526;9.928;2024-03-06T02:08:10;100172.34;;;6.75;100.00
25584;BME280;13463;51.526;9.928;2024-03-06T02:10:37;100175.56;;;6.83;100.00
25584;BME280;13463;51.526;9.928;2024-03-06T02:13:03;100167.28;;;6.94;100.00
25584;BME280;13463;51.526;9.928;2024-03-06T02:15:30;100168.75;;;7.01;100.00
25584;BME280;13463;51.526;9.928;2024-03-06T02:17:57;100185.66;;;6.95;100.00
25584;BME280;13463;51.526;9.928;2024-03-06T02:20:25;100190.06;;;6.71;100.00
25584;BME280;13463;51.526;9.928;2024-03-06T02:22:51;100184.19;;;6.88;100.00
25584;BME280;13463;51.526;9.928;2024-03-06T02:25:19;100187.84;;;6.84;100.00
25584;BME280;13463;51.526;9.928;2024-03-06T02:27:46;100184.50;;;6.79;100.00
25584;BME280;13463;51.526;9.928;2024-03-06T02:30:18;100191.09;;;6.67;100.00
25584;BME280;13463;51.526;9.928;2024-03-06T02:32:45;100181.31;;;6.94;100.00
25584;BME280;13463;51.526;9.928;2024-03-06T02:35:11;100183.72;;;7.00;100.00
25584;BME280;13463;51.526;9.928;2024-03-06T02:37:38;100193.50;;;6.97;100.00
25584;BME280;13463;51.526;9.928;2024-03-06T02:40:05;100191.13;;;6.91;100.00
25584;BME280;13463;51.526;9.928;2024-03-06T02:42:33;100191.81;;;6.96;100.00
25584;BME280;13463;51.526;9.928;2024-03-06T02:45:00;100192.50;;;7.01;100.00
25584;BME280;13463;51.526;9.928;2024-03-06T02:47:26;100190.41;;;7.09;100.00
25584;BME280;13463;51.526;9.928;2024-03-06T02:49:53;100197.44;;;6.87;100.00
25584;BME280;13463;51.526;9.928;2024-03-06T02:52:20;100192.94;;;6.89;100.00
25584;BME280;13463;51.526;9.928;2024-03-06T02:54:46;100205.19;;;6.66;100.00
25584;BME280;13463;51.526;9.928;2024-03-06T02:57:13;100196.91;;;6.52;100.00
25584;BME280;13463;51.526;9.928;2024-03-06T02:59:40;100204.31;;;6.41;100.00
25584;BME280;13463;51.526;9.928;2024-03-06T03:02:07;100206.19;;;6.38;100.00
25584;BME280;13463;51.526;9.928;2024-03-06T03:04:33;100205.84;;;6.22;100.00
25584;BME280;13463;51.526;9.928;2024-03-06T03:07:00;100207.50;;;6.25;100.00
25584;BME280;13463;51.526;9.928;2024-03-06T03:09:26;100209.16;;;6.29;100.00
25584;BME280;13463;51.526;9.928;2024-03-06T03:11:54;100210.00;;;6.29;100.00
25584;BME280;13463;51.526;9.928;2024-03-06T03:14:20;100206.13;;;6.39;100.00
25584;BME280;13463;51.526;9.928;2024-03-06T03:16:47;100212.34;;;6.38;100.00
25584;BME280;13463;51.526;9.928;2024-03-06T03:19:13;100209.16;;;6.29;100.00
25584;BME280;13463;51.526;9.928;2024-03-06T03:21:44;100211.94;;;6.24;100.00
25584;BME280;13463;51.526;9.928;2024-03-06T03:24:10;100215.41;;;6.25;100.00
25584;BME280;13463;51.526;9.928;2024-03-06T03:26:37;100215.16;;;6.32;100.00
25584;BME280;13463;51.526;9.928;2024-03-06T03:29:04;100220.66;;;6.26;100.00
25584;BME280;13463;51.526;9.928;2024-03-06T03:31:31;100225.84;;;6.28;100.00
25584;BME280;13463;51.526;9.928;2024-03-06T03:33:59;100220.44;;;6.32;100.00
25584;BME280;13463;51.526;9.928;2024-03-06T03:36:26;100223.31;;;6.25;100.00
25584;BME280;13463;51.526;9.928;2024-03-06T03:38:52;100224.97;;;6.29;100.00
25584;BME280;13463;51.526;9.928;2024-03-06T03:41:19;100225.69;;;6.32;100.00
25584;BME280;13463;51.526;9.928;2024-03-06T03:43:46;100225.78;;;6.29;100.00
25584;BME280;13463;51.526;9.928;2024-03-06T03:46:12;100232.59;;;6.36;100.00
25584;BME280;13463;51.526;9.928;2024-03-06T03:48:40;100232.00;;;6.28;100.00
25584;BME280;13463;51.526;9.928;2024-03-06T03:51:06;100223.31;;;6.25;100.00
25584;BME280;13463;51.526;9.928;2024-03-06T03:53:34;100232.28;;;6.45;100.00
25584;BME280;13463;51.526;9.928;2024-03-06T03:56:01;100232.19;;;6.48;100.00
25584;BME280;13463;51.526;9.928;2024-03-06T03:58:28;100228.94;;;6.40;100.00
25584;BME280;13463;51.526;9.928;2024-03-06T04:00:54;100233.34;;;6.40;100.00
25584;BME280;13463;51.526;9.928;2024-03-06T04:03:22;100236.03;;;6.38;100.00
25584;BME280;13463;51.526;9.928;2024-03-06T04:05:51;100236.13;;;6.35;100.00
25584;BME280;13463;51.526;9.928;2024-03-06T04:08:18;100239.47;;;6.40;100.00
25584;BME280;13463;51.526;9.928;2024-03-06T04:10:44;100242.91;;;6.42;100.00
25584;BME280;13463;51.526;9.928;2024-03-06T04:13:12;100246.16;;;6.50;100.00
25584;BME280;13463;51.526;9.928;2024-03-06T04:15:39;100252.94;;;6.57;100.00
25584;BME280;13463;51.526;9.928;2024-03-06T04:18:05;100242.00;;;6.93;100.00
25584;BME280;13463;51.526;9.928;2024-03-06T04:20:32;100242.59;;;7.01;100.00
25584;BME280;13463;51.526;9.928;2024-03-06T04:22:59;100246.25;;;6.97;100.00
25584;BME280;13463;51.526;9.928;2024-03-06T04:25:25;100258.19;;;7.07;100.00
25584;BME280;13463;51.526;9.928;2024-03-06T04:27:52;100248.66;;;7.03;100.00
25584;BME280;13463;51.526;9.928;2024-03-06T04:30:18;100258.97;;;7.09;100.00
25584;BME280;13463;51.526;9.928;2024-03-06T04:32:45;100261.50;;;7.12;100.00
25584;BME280;13463;51.526;9.928;2024-03-06T04:35:12;100258.69;;;7.16;100.00
25584;BME280;13463;51.526;9.928;2024-03-06T04:37:38;100261.63;;;7.09;100.00
25584;BME280;13463;51.526;9.928;2024-03-06T04:40:06;100262.75;;;7.02;100.00
25584;BME280;13463;51.526;9.928;2024-03-06T04:42:36;100263.81;;;7.21;100.00
25584;BME280;13463;51.526;9.928;2024-03-06T04:45:08;100258.06;;;7.10;100.00
25584;BME280;13463;51.526;9.928;2024-03-06T04:47:35;100270.66;;;7.02;100.00
25584;BME280;13463;51.526;9.928;2024-03-06T04:50:02;100269.31;;;6.92;100.00
25584;BME280;13463;51.526;9.928;2024-03-06T04:52:28;100273.19;;;7.05;100.00
25584;BME280;13463;51.526;9.928;2024-03-06T04:54:55;100268.91;;;7.02;100.00
25584;BME280;13463;51.526;9.928;2024-03-06T04:57:21;100276.72;;;7.05;100.00
25584;BME280;13463;51.526;9.928;2024-03-06T04:59:48;100278.72;;;7.22;100.00
25584;BME280;13463;51.526;9.928;2024-03-06T05:02:14;100278.53;;;7.28;100.00
25584;BME280;13463;51.526;9.928;2024-03-06T05:04:41;100287.44;;;7.24;100.00
25584;BME280;13463;51.526;9.928;2024-03-06T05:07:25;100282.66;;;7.35;100.00
25584;BME280;13463;51.526;9.928;2024-03-06T05:10:09;100285.59;;;7.26;100.00
25584;BME280;13463;51.526;9.928;2024-03-06T05:12:53;100288.63;;;7.40;100.00
25584;BME280;13463;51.526;9.928;2024-03-06T05:15:37;100294.66;;;7.19;100.00
25584;BME280;13463;51.526;9.928;2024-03-06T05:18:23;100297.72;;;7.08;100.00
25584;BME280;13463;51.526;9.928;2024-03-06T05:21:07;100290.88;;;7.03;100.00
25584;BME280;13463;51.526;9.928;2024-03-06T05:23:52;100291.75;;;7.02;100.00
25584;BME280;13463;51.526;9.928;2024-03-06T05:26:36;100295.50;;;6.71;100.00
25584;BME280;13463;51.526;9.928;2024-03-06T05:29:20;100298.84;;;6.77;100.00
25584;BME280;13463;51.526;9.928;2024-03-06T05:32:04;100299.50;;;6.57;100.00
25584;BME280;13463;51.526;9.928;2024-03-06T05:34:48;100312.69;;;6.57;100.00
25584;BME280;13463;51.526;9.928;2024-03-06T05:37:32;100312.13;;;6.47;100.00
25584;BME280;13463;51.526;9.928;2024-03-06T05:40:16;100313.31;;;6.63;100.00
25584;BME280;13463;51.526;9.928;2024-03-06T05:43:00;100314.13;;;6.65;100.00
25584;BME280;13463;51.526;9.928;2024-03-06T05:45:44;100319.13;;;6.75;100.00
25584;BME280;13463;51.526;9.928;2024-03-06T05:48:28;100322.50;;;7.03;100.00
25584;BME280;13463;51.526;9.928;2024-03-06T05:51:13;100328.81;;;6.99;100.00
25584;BME280;13463;51.526;9.928;2024-03-06T05:53:57;100332.56;;;7.16;100.00
25584;BME280;13463;51.526;9.928;2024-03-06T05:56:41;100327.44;;;7.12;100.00
25584;BME280;13463;51.526;9.928;2024-03-06T05:59:26;100341.00;;;7.26;100.00
25584;BME280;13463;51.526;9.928;2024-03-06T06:01:52;100345.09;;;7.34;100.00
25584;BME280;13463;51.526;9.928;2024-03-06T06:04:19;100341.50;;;7.37;100.00
25584;BME280;13463;51.526;9.928;2024-03-06T06:06:46;100347.41;;;7.19;100.00
25584;BME280;13463;51.526;9.928;2024-03-06T06:09:12;100347.41;;;7.19;100.00
25584;BME280;13463;51.526;9.928;2024-03-06T06:11:43;100347.38;;;6.96;100.00
25584;BME280;13463;51.526;9.928;2024-03-06T06:14:10;100352.84;;;7.14;100.00
25584;BME280;13463;51.526;9.928;2024-03-06T06:16:38;100355.34;;;7.19;100.00
25584;BME280;13463;51.526;9.928;2024-03-06T06:19:06;100358.31;;;7.10;100.00
25584;BME280;13463;51.526;9.928;2024-03-06T06:21:33;100362.59;;;6.88;100.00
25584;BME280;13463;51.526;9.928;2024-03-06T06:24:02;100369.78;;;6.83;100.00
25584;BME280;13463;51.526;9.928;2024-03-06T06:26:30;100372.03;;;6.68;100.00
25584;BME280;13463;51.526;9.928;2024-03-06T06:28:57;100378.88;;;6.74;100.00
25584;BME280;13463;51.526;9.928;2024-03-06T06:31:24;100371.38;;;6.62;100.00
25584;BME280;13463;51.526;9.928;2024-03-06T06:33:53;100367.72;;;6.66;100.00
25584;BME280;13463;51.526;9.928;2024-03-06T06:36:19;100374.91;;;6.61;100.00
25584;BME280;13463;51.526;9.928;2024-03-06T06:38:47;100370.41;;;6.64;100.00
25584;BME280;13463;51.526;9.928;2024-03-06T06:41:15;100379.22;;;6.63;100.00
25584;BME280;13463;51.526;9.928;2024-03-06T06:43:42;100379.22;;;6.63;100.00
25584;BME280;13463;51.526;9.928;2024-03-06T06:46:08;100386.31;;;6.61;100.00
25584;BME280;13463;51.526;9.928;2024-03-06T06:48:35;100396.75;;;6.64;100.00
25584;BME280;13463;51.526;9.928;2024-03-06T06:51:02;100402.13;;;6.61;100.00
25584;BME280;13463;51.526;9.928;2024-03-06T06:53:32;100397.81;;;6.59;100.00
25584;BME280;13463;51.526;9.928;2024-03-06T06:56:00;100398.88;;;6.53;100.00
25584;BME280;13463;51.526;9.928;2024-03-06T06:58:27;100407.59;;;6.55;100.00
25584;BME280;13463;51.526;9.928;2024-03-06T07:00:53;100415.53;;;6.82;100.00
25584;BME280;13463;51.526;9.928;2024-03-06T07:03:20;100417.94;;;6.61;100.00
25584;BME280;13463;51.526;9.928;2024-03-06T07:05:49;100418.03;;;6.58;100.00
25584;BME280;13463;51.526;9.928;2024-03-06T07:08:16;100425.69;;;6.66;100.00
25584;BME280;13463;51.526;9.928;2024-03-06T07:10:43;100422.81;;;6.73;100.00
25584;BME280;13463;51.526;9.928;2024-03-06T07:13:09;100429.47;;;6.85;100.00
25584;BME280;13463;51.526;9.928;2024-03-06T07:15:36;100433.06;;;6.83;100.00
25584;BME280;13463;51.526;9.928;2024-03-06T07:18:04;100436.63;;;6.82;100.00
25584;BME280;13463;51.526;9.928;2024-03-06T07:20:31;100439.97;;;6.87;100.00
25584;BME280;13463;51.526;9.928;2024-03-06T07:22:58;100438.44;;;6.80;100.00
25584;BME280;13463;51.526;9.928;2024-03-06T07:25:25;100438.31;;;6.83;100.00
25584;BME280;13463;51.526;9.928;2024-03-06T07:27:52;100451.72;;;6.77;100.00
25584;BME280;13463;51.526;9.928;2024-03-06T07:30:19;100454.16;;;6.83;100.00
25584;BME280;13463;51.526;9.928;2024-03-06T07:32:45;100454.91;;;6.86;100.00
25584;BME280;13463;51.526;9.928;2024-03-06T07:35:12;100460.59;;;7.00;100.00
25584;BME280;13463;51.526;9.928;2024-03-06T07:37:39;100466.84;;;7.24;100.00
25584;BME280;13463;51.526;9.928;2024-03-06T07:40:07;100461.47;;;7.27;100.00
25584;BME280;13463;51.526;9.928;2024-03-06T07:42:36;100466.50;;;7.33;100.00
25584;BME280;13463;51.526;9.928;2024-03-06T07:45:06;100463.44;;;7.45;100.00
25584;BME280;13463;51.526;9.928;2024-03-06T07:47:35;100470.06;;;7.81;100.00
25584;BME280;13463;51.526;9.928;2024-03-06T07:50:05;100472.63;;;8.07;100.00
25584;BME280;13463;51.526;9.928;2024-03-06T07:52:32;100469.00;;;7.62;100.00
25584;BME280;13463;51.526;9.928;2024-03-06T07:54:59;100478.38;;;7.46;100.00
25584;BME280;13463;51.526;9.928;2024-03-06T07:57:26;100484.16;;;7.32;100.00
25584;BME280;13463;51.526;9.928;2024-03-06T07:59:52;100481.22;;;7.14;100.00
25584;BME280;13463;51.526;9.928;2024-03-06T08:02:21;100478.28;;;6.97;100.00
25584;BME280;13463;51.526;9.928;2024-03-06T08:04:48;100482.41;;;7.05;100.00
25584;BME280;13463;51.526;9.928;2024-03-06T08:07:15;100485.00;;;7.07;100.00
25584;BME280;13463;51.526;9.928;2024-03-06T08:09:41;100483.13;;;7.10;100.00
25584;BME280;13463;51.526;9.928;2024-03-06T08:12:09;100487.03;;;6.99;100.00
25584;BME280;13463;51.526;9.928;2024-03-06T08:14:36;100490.53;;;7.50;100.00
25584;BME280;13463;51.526;9.928;2024-03-06T08:17:03;100493.75;;;7.33;100.00
25584;BME280;13463;51.526;9.928;2024-03-06T08:19:29;100492.56;;;7.17;100.00
25584;BME280;13463;51.526;9.928;2024-03-06T08:21:56;100490.13;;;7.37;100.00
25584;BME280;13463;51.526;9.928;2024-03-06T08:24:23;100494.13;;;7.74;100.00
25584;BME280;13463;51.526;9.928;2024-03-06T08:26:49;100498.91;;;7.63;100.00
25584;BME280;13463;51.526;9.928;2024-03-06T08:29:16;100498.09;;;7.61;100.00
25584;BME280;13463;51.526;9.928;2024-03-06T08:31:42;100498.38;;;7.53;100.00
25584;BME280;13463;51.526;9.928;2024-03-06T08:34:09;100509.91;;;7.51;100.00
25584;BME280;13463;51.526;9.928;2024-03-06T08:36:36;100513.00;;;7.37;100.00
25584;BME280;13463;51.526;9.928;2024-03-06T08:39:03;100511.78;;;7.47;100.00
25584;BME280;13463;51.526;9.928;2024-03-06T08:41:29;100515.72;;;7.60;100.00
25584;BME280;13463;51.526;9.928;2024-03-06T08:43:56;100512.13;;;7.87;98.90
25584;BME280;13463;51.526;9.928;2024-03-06T08:46:22;100516.63;;;7.84;99.35
25584;BME280;13463;51.526;9.928;2024-03-06T08:48:50;100518.25;;;7.63;100.00
25584;BME280;13463;51.526;9.928;2024-03-06T08:51:17;100520.06;;;8.11;97.06
25584;BME280;13463;51.526;9.928;2024-03-06T08:53:43;100518.72;;;8.24;95.58
25584;BME280;13463;51.526;9.928;2024-03-06T08:56:10;100516.84;;;8.50;94.14
25584;BME280;13463;51.526;9.928;2024-03-06T08:58:37;100520.47;;;8.48;92.16
25584;BME280;13463;51.526;9.928;2024-03-06T09:01:03;100520.16;;;8.79;89.22
25584;BME280;13463;51.526;9.928;2024-03-06T09:03:30;100536.84;;;8.57;89.60
25584;BME280;13463;51.526;9.928;2024-03-06T09:05:58;100536.78;;;8.36;92.00
25584;BME280;13463;51.526;9.928;2024-03-06T09:08:26;100537.25;;;8.47;92.61
25584;BME280;13463;51.526;9.928;2024-03-06T09:10:53;100537.06;;;8.51;93.84
25584;BME280;13463;51.526;9.928;2024-03-06T09:13:20;100541.66;;;8.69;93.11
25584;BME280;13463;51.526;9.928;2024-03-06T09:15:46;100545.28;;;8.44;94.80
25584;BME280;13463;51.526;9.928;2024-03-06T09:18:13;100547.72;;;8.27;93.80
25584;BME280;13463;51.526;9.928;2024-03-06T09:20:39;100544.97;;;8.03;93.91
25584;BME280;13463;51.526;9.928;2024-03-06T09:23:06;100546.59;;;8.07;95.35
25584;BME280;13463;51.526;9.928;2024-03-06T09:25:32;100557.41;;;8.26;93.60
25584;BME280;13463;51.526;9.928;2024-03-06T09:27:59;100558.16;;;8.30;94.60
25584;BME280;13463;51.526;9.928;2024-03-06T09:30:27;100552.78;;;8.78;92.66
25584;BME280;13463;51.526;9.928;2024-03-06T09:32:54;100546.72;;;8.97;91.04
25584;BME280;13463;51.526;9.928;2024-03-06T09:35:21;100535.81;;;9.06;88.32
25584;BME280;13463;51.526;9.928;2024-03-06T09:37:48;100547.97;;;9.32;85.42
25584;BME280;13463;51.526;9.928;2024-03-06T09:40:20;100544.25;;;9.36;82.43
25584;BME280;13463;51.526;9.928;2024-03-06T09:42:49;100546.59;;;9.44;81.65
25584;BME280;13463;51.526;9.928;2024-03-06T09:45:17;100552.50;;;9.28;82.48
25584;BME280;13463;51.526;9.928;2024-03-06T09:47:46;100552.66;;;9.47;82.53
25584;BME280;13463;51.526;9.928;2024-03-06T09:50:16;100558.72;;;9.49;82.17
25584;BME280;13463;51.526;9.928;2024-03-06T09:52:44;100555.66;;;9.80;80.19
25584;BME280;13463;51.526;9.928;2024-03-06T09:55:13;100559.09;;;9.82;81.02
25584;BME280;13463;51.526;9.928;2024-03-06T09:57:41;100558.91;;;10.06;79.02
25584;BME280;13463;51.526;9.928;2024-03-06T10:00:08;100562.50;;;9.22;83.54
25584;BME280;13463;51.526;9.928;2024-03-06T10:02:41;100569.63;;;9.42;81.06
25584;BME280;13463;51.526;9.928;2024-03-06T10:05:22;100578.38;;;9.00;85.47
25584;BME280;13463;51.526;9.928;2024-03-06T10:07:50;100575.22;;;9.34;86.95
25584;BME280;13463;51.526;9.928;2024-03-06T10:10:19;100579.47;;;9.16;89.42
25584;BME280;13463;51.526;9.928;2024-03-06T10:12:46;100583.22;;;9.76;83.06
25584;BME280;13463;51.526;9.928;2024-03-06T10:15:14;100575.78;;;9.42;84.39
25584;BME280;13463;51.526;9.928;2024-03-06T10:17:41;100576.75;;;9.61;85.31
25584;BME280;13463;51.526;9.928;2024-03-06T10:20:18;100596.69;;;9.05;86.95
25584;BME280;13463;51.526;9.928;2024-03-06T10:22:52;100595.22;;;8.98;87.72
25584;BME280;13463;51.526;9.928;2024-03-06T10:25:24;100592.88;;;9.55;85.45
25584;BME280;13463;51.526;9.928;2024-03-06T10:28:10;100593.88;;;9.53;81.61
25584;BME280;13463;51.526;9.928;2024-03-06T10:30:41;100597.28;;;9.76;81.71
25584;BME280;13463;51.526;9.928;2024-03-06T10:33:13;100596.81;;;9.23;86.55
25584;BME280;13463;51.526;9.928;2024-03-06T10:35:41;100598.97;;;9.99;81.30
25584;BME280;13463;51.526;9.928;2024-03-06T10:38:09;100597.00;;;10.04;81.71
25584;BME280;13463;51.526;9.928;2024-03-06T10:40:38;100601.63;;;9.35;85.74
25584;BME280;13463;51.526;9.928;2024-03-06T10:43:06;100597.88;;;10.25;81.38
25584;BME280;13463;51.526;9.928;2024-03-06T10:48:03;100597.69;;;10.29;79.45
25584;BME280;13463;51.526;9.928;2024-03-06T10:50:31;100592.94;;;11.12;73.80
25584;BME280;13463;51.526;9.928;2024-03-06T10:52:59;100595.19;;;10.65;72.12
25584;BME280;13463;51.526;9.928;2024-03-06T10:55:28;100592.03;;;10.94;68.19
25584;BME280;13463;51.526;9.928;2024-03-06T10:57:56;100594.19;;;10.86;67.84
25584;BME280;13463;51.526;9.928;2024-03-06T11:00:24;100592.00;;;10.76;68.19
25584;BME280;13463;51.526;9.928;2024-03-06T11:02:54;100593.75;;;10.77;66.72
25584;BME280;13463;51.526;9.928;2024-03-06T11:05:22;100594.53;;;11.16;67.33
25584;BME280;13463;51.526;9.928;2024-03-06T11:07:49;100596.03;;;11.21;66.57
25584;BME280;13463;51.526;9.928;2024-03-06T11:10:32;100587.25;;;11.38;65.61
25584;BME280;13463;51.526;9.928;2024-03-06T11:13:03;100587.09;;;11.41;64.23
25584;BME280;13463;51.526;9.928;2024-03-06T11:15:31;100596.47;;;11.12;66.17
25584;BME280;13463;51.526;9.928;2024-03-06T11:17:58;100597.91;;;11.19;67.51
25584;BME280;13463;51.526;9.928;2024-03-06T11:20:33;100597.03;;;11.19;68.50
25584;BME280;13463;51.526;9.928;2024-03-06T11:23:07;100606.50;;;10.68;68.52
25584;BME280;13463;51.526;9.928;2024-03-06T11:28:40;100597.81;;;10.26;74.21
25584;BME280;13463;51.526;9.928;2024-03-06T11:31:09;100605.66;;;9.87;76.27
25584;BME280;13463;51.526;9.928;2024-03-06T11:33:43;100601.59;;;10.21;74.54
25584;BME280;13463;51.526;9.928;2024-03-06T11:41:16;100595.97;;;11.23;67.66
25584;BME280;13463;51.526;9.928;2024-03-06T11:43:45;100598.63;;;11.23;68.47
25584;BME280;13463;51.526;9.928;2024-03-06T11:46:12;100598.63;;;11.04;70.81
25584;BME280;13463;51.526;9.928;2024-03-06T11:48:40;100599.97;;;11.31;68.26
25584;BME280;13463;51.526;9.928;2024-03-06T11:51:08;100604.38;;;10.95;71.20
25584;BME280;13463;51.526;9.928;2024-03-06T11:53:35;100602.28;;;10.64;74.37
25584;BME280;13463;51.526;9.928;2024-03-06T11:56:06;100600.59;;;10.43;74.29
25584;BME280;13463;51.526;9.928;2024-03-06T11:58:34;100596.00;;;10.65;72.40
25584;BME280;13463;51.526;9.928;2024-03-06T12:01:01;100592.81;;;11.15;70.89
25584;BME280;13463;51.526;9.928;2024-03-06T12:03:27;100591.53;;;10.67;71.82
25584;BME280;13463;51.526;9.928;2024-03-06T12:05:54;100589.25;;;11.16;69.37
25584;BME280;13463;51.526;9.928;2024-03-06T12:08:21;100590.28;;;11.66;66.85
25584;BME280;13463;51.526;9.928;2024-03-06T12:10:47;100588.44;;;11.68;62.81
25584;BME280;13463;51.526;9.928;2024-03-06T12:13:14;100588.75;;;11.79;63.14
25584;BME280;13463;51.526;9.928;2024-03-06T12:15:43;100587.84;;;11.97;64.18
25584;BME280;13463;51.526;9.928;2024-03-06T12:18:11;100599.22;;;11.11;69.48
25584;BME280;13463;51.526;9.928;2024-03-06T12:20:44;100599.03;;;11.14;69.83
25584;BME280;13463;51.526;9.928;2024-03-06T12:23:22;100590.81;;;11.01;71.34
25584;BME280;13463;51.526;9.928;2024-03-06T12:26:10;100598.31;;;10.54;73.24
25584;BME280;13463;51.526;9.928;2024-03-06T12:28:38;100601.25;;;10.48;74.48
25584;BME280;13463;51.526;9.928;2024-03-06T12:31:06;100607.22;;;10.13;76.84
25584;BME280;13463;51.526;9.928;2024-03-06T12:33:34;100603.28;;;10.01;77.62
25584;BME280;13463;51.526;9.928;2024-03-06T12:38:29;100592.47;;;10.46;73.71
25584;BME280;13463;51.526;9.928;2024-03-06T12:40:57;100587.13;;;10.85;74.31
25584;BME280;13463;51.526;9.928;2024-03-06T12:43:28;100584.19;;;11.64;67.66
25584;BME280;13463;51.526;9.928;2024-03-06T12:45:57;100582.13;;;11.52;68.20
25584;BME280;13463;51.526;9.928;2024-03-06T12:48:27;100588.59;;;11.82;67.70
25584;BME280;13463;51.526;9.928;2024-03-06T12:50:56;100589.06;;;11.19;68.53
25584;BME280;13463;51.526;9.928;2024-03-06T12:53:31;100580.56;;;11.65;65.64
25584;BME280;13463;51.526;9.928;2024-03-06T12:55:59;100574.13;;;11.35;66.44
25584;BME280;13463;51.526;9.928;2024-03-06T12:58:26;100583.94;;;11.33;67.67
25584;BME280;13463;51.526;9.928;2024-03-06T13:00:52;100584.84;;;11.15;67.64
25584;BME280;13463;51.526;9.928;2024-03-06T13:03:20;100574.84;;;11.56;67.47
25584;BME280;13463;51.526;9.928;2024-03-06T13:05:46;100579.63;;;11.49;66.65
25584;BME280;13463;51.526;9.928;2024-03-06T13:08:13;100574.69;;;11.77;63.86
25584;BME280;13463;51.526;9.928;2024-03-06T13:10:41;100574.59;;;11.43;65.89
25584;BME280;13463;51.526;9.928;2024-03-06T13:13:08;100578.53;;;11.53;65.65